createdAt,value
2018-03-15T00:00:44.813Z,1003.6
2018-03-15T00:06:08.021Z,1003.5
2018-03-15T00:10:44.925Z,1003.4
2018-03-15T00:15:44.490Z,1003.4
2018-03-15T00:20:58.502Z,1003.2
2018-03-15T00:25:43.943Z,1003.2
2018-03-15T00:30:45.069Z,1003.3
2018-03-15T00:35:44.218Z,1003.2
2018-03-15T00:40:44.060Z,1003.3
2018-03-15T00:45:44.687Z,1003.2
2018-03-15T00:50:44.119Z,1003.1
2018-03-15T00:55:44.865Z,1003
2018-03-15T01:00:44.286Z,1002.9
2018-03-15T01:05:51.481Z,1002.7
2018-03-15T01:10:44.845Z,1002.6
2018-03-15T01:15:48.449Z,1002.6
2018-03-15T01:20:46.028Z,1002.4
2018-03-15T01:26:01.874Z,1002.4
2018-03-15T01:30:56.275Z,1002.3
2018-03-15T01:35:47.666Z,1002.1
2018-03-15T01:41:53.579Z,1002
2018-03-15T01:46:25.451Z,1001.9
2018-03-15T01:50:44.811Z,1001.8
2018-03-15T01:55:44.635Z,1001.9
2018-03-15T02:00:51.501Z,1001.7
2018-03-15T02:05:47.668Z,1001.6
2018-03-15T02:10:56.306Z,1001.5
2018-03-15T02:15:49.256Z,1001.5
2018-03-15T02:20:50.516Z,1001.4
2018-03-15T02:25:44.715Z,1001.2
2018-03-15T02:31:41.799Z,1001.1
2018-03-15T02:35:46.262Z,1001
2018-03-15T02:40:45.637Z,1000.9
2018-03-15T02:45:44.390Z,1000.9
2018-03-15T02:50:45.352Z,1000.7
2018-03-15T02:55:44.950Z,1000.7
2018-03-15T03:00:45.850Z,1000.6
2018-03-15T03:05:52.017Z,1000.5
2018-03-15T03:10:45.099Z,1000.5
2018-03-15T03:15:50.050Z,1000.4
2018-03-15T03:20:48.472Z,1000.2
2018-03-15T03:26:33.697Z,1000.2
2018-03-15T03:32:41.824Z,1000.1
2018-03-15T03:35:50.046Z,1000
2018-03-15T03:40:53.699Z,999.9
2018-03-15T03:45:45.671Z,999.8
2018-03-15T03:50:44.581Z,999.8
2018-03-15T03:55:46.715Z,999.6
2018-03-15T04:00:44.482Z,999.6
2018-03-15T04:05:47.030Z,999.6
2018-03-15T04:10:46.246Z,999.5
2018-03-15T04:15:44.369Z,999.5
2018-03-15T04:20:45.007Z,999.5
2018-03-15T04:25:47.074Z,999.6
2018-03-15T04:30:46.785Z,999.5
2018-03-15T04:35:46.021Z,999.4
2018-03-15T04:40:58.541Z,999.4
2018-03-15T04:45:49.054Z,999.3
2018-03-15T04:50:49.185Z,999.3
2018-03-15T04:55:55.210Z,999.2
2018-03-15T05:01:00.310Z,999.2
2018-03-15T05:05:49.832Z,999
2018-03-15T05:10:44.584Z,999
2018-03-15T05:15:44.642Z,998.9
2018-03-15T05:20:43.908Z,998.9
2018-03-15T05:25:43.234Z,998.9
2018-03-15T05:30:43.250Z,998.8
2018-03-15T05:35:43.284Z,998.8
2018-03-15T05:40:43.622Z,998.9
2018-03-15T05:45:43.054Z,998.8
2018-03-15T05:50:43.120Z,998.8
2018-03-15T05:55:43.143Z,998.9
2018-03-15T06:00:43.184Z,998.8
2018-03-15T06:05:43.348Z,998.8
2018-03-15T06:10:43.264Z,998.8
2018-03-15T06:15:42.919Z,998.8
2018-03-15T06:20:42.938Z,998.8
2018-03-15T06:25:43.210Z,998.7
2018-03-15T06:30:42.925Z,998.6
2018-03-15T06:35:42.952Z,998.7
2018-03-15T06:40:43.341Z,998.4
2018-03-15T06:45:43.021Z,998.6
2018-03-15T06:50:42.919Z,998.5
2018-03-15T06:55:43.023Z,998.6
2018-03-15T07:00:42.870Z,998.6
2018-03-15T07:05:42.938Z,998.6
2018-03-15T07:10:42.991Z,998.5
2018-03-15T07:15:43.013Z,998.5
2018-03-15T07:20:43.305Z,998.4
2018-03-15T07:25:42.778Z,998.5
2018-03-15T07:30:43.024Z,998.4
2018-03-15T07:35:43.049Z,998.4
2018-03-15T07:40:42.746Z,998.5
2018-03-15T07:45:43.670Z,998.4
2018-03-15T07:50:43.552Z,998.5
2018-03-15T07:55:43.482Z,998.3
2018-03-15T08:00:48.262Z,998.3
2018-03-15T08:05:44.757Z,998.2
2018-03-15T08:11:11.146Z,998.2
2018-03-15T08:16:18.651Z,998.2
2018-03-15T08:20:43.920Z,998.3
2018-03-15T08:25:43.948Z,998.2
2018-03-15T08:30:42.943Z,998.2
2018-03-15T08:35:43.001Z,998.1
2018-03-15T08:40:42.836Z,998.2
2018-03-15T08:45:43.101Z,998.1
2018-03-15T08:50:42.921Z,998
2018-03-15T08:55:42.737Z,998.1
2018-03-15T09:00:42.902Z,998
2018-03-15T09:05:42.987Z,998
2018-03-15T09:10:43.004Z,997.8
2018-03-15T09:15:42.770Z,998
2018-03-15T09:20:42.990Z,998
2018-03-15T09:25:43.016Z,997.9
2018-03-15T09:30:42.743Z,997.8
2018-03-15T09:35:42.992Z,997.8
2018-03-15T09:40:42.952Z,997.7
2018-03-15T09:45:43.008Z,997.7
2018-03-15T09:50:42.934Z,997.6
2018-03-15T09:55:42.677Z,997.6
2018-03-15T10:00:42.842Z,997.5
2018-03-15T10:05:42.796Z,997.2
2018-03-15T10:10:43.081Z,997.2
2018-03-15T10:15:42.634Z,997.2
2018-03-15T10:20:42.783Z,997.5
2018-03-15T10:25:42.630Z,997.4
2018-03-15T10:30:42.660Z,997.3
2018-03-15T10:35:42.743Z,997.4
2018-03-15T10:40:42.875Z,997.4
2018-03-15T10:45:42.684Z,997.4
2018-03-15T10:50:42.874Z,997.4
2018-03-15T10:55:42.687Z,997.3
2018-03-15T11:00:42.502Z,997.3
2018-03-15T11:05:42.664Z,997.3
2018-03-15T11:10:42.704Z,997.3
2018-03-15T11:15:42.725Z,997.3
2018-03-15T11:20:44.392Z,997.4
2018-03-15T11:25:42.484Z,997.5
2018-03-15T11:30:42.876Z,997.3
2018-03-15T11:35:43.075Z,997.3
2018-03-15T11:40:42.819Z,997.2
2018-03-15T11:45:42.530Z,997.2
2018-03-15T11:50:44.253Z,997.4
2018-03-15T11:55:42.441Z,997.2
2018-03-15T12:00:42.625Z,997.2
2018-03-15T12:05:42.959Z,997.1
2018-03-15T12:10:42.944Z,997.1
2018-03-15T12:15:42.757Z,997
2018-03-15T12:20:43.224Z,997
2018-03-15T12:25:42.678Z,996.9
2018-03-15T12:30:42.545Z,996.8
2018-03-15T12:35:42.406Z,996.9
2018-03-15T12:40:42.385Z,996.8
2018-03-15T12:45:42.345Z,996.8
2018-03-15T12:50:42.717Z,996.8
2018-03-15T12:55:42.328Z,996.8
2018-03-15T13:00:42.471Z,996.9
2018-03-15T13:05:42.483Z,996.7
2018-03-15T13:10:42.697Z,996.8
2018-03-15T13:15:42.421Z,996.8
2018-03-15T13:20:42.311Z,996.8
2018-03-15T13:25:42.557Z,996.8
2018-03-15T13:30:42.322Z,996.8
2018-03-15T13:35:42.523Z,996.7
2018-03-15T13:40:42.339Z,996.7
2018-03-15T13:45:42.609Z,996.8
2018-03-15T13:50:43.048Z,996.9
2018-03-15T13:55:42.655Z,996.9
2018-03-15T14:00:42.464Z,996.8
2018-03-15T14:05:43.059Z,996.9
2018-03-15T14:10:42.401Z,996.9
2018-03-15T14:15:42.474Z,996.9
2018-03-15T14:20:42.647Z,996.8
2018-03-15T14:25:42.408Z,996.9
2018-03-15T14:30:42.492Z,996.8
2018-03-15T14:35:43.422Z,996.7
2018-03-15T14:40:42.406Z,996.7
2018-03-15T14:45:42.627Z,996.8
2018-03-15T14:50:43.975Z,996.8
2018-03-15T14:55:42.340Z,996.7
2018-03-15T15:00:42.418Z,996.8
2018-03-15T15:05:42.381Z,996.8
2018-03-15T15:10:42.150Z,996.9
2018-03-15T15:15:42.224Z,996.9
2018-03-15T15:20:42.575Z,997
2018-03-15T15:25:42.160Z,997.1
2018-03-15T15:30:42.339Z,997.1
2018-03-15T15:35:42.462Z,997.1
2018-03-15T15:40:42.446Z,997.1
2018-03-15T15:45:42.530Z,997.1
2018-03-15T15:50:42.859Z,997
2018-03-15T15:55:42.165Z,997
2018-03-15T16:00:42.341Z,997
2018-03-15T16:05:42.444Z,996.9
2018-03-15T16:10:42.493Z,996.8
2018-03-15T16:15:42.286Z,996.8
2018-03-15T16:20:42.397Z,996.9
2018-03-15T16:25:42.252Z,996.9
2018-03-15T16:30:42.084Z,997
2018-03-15T16:35:42.395Z,997.1
2018-03-15T16:40:43.233Z,997.2
2018-03-15T16:45:42.004Z,997.3
2018-03-15T16:50:42.230Z,997.3
2018-03-15T16:55:42.210Z,997.3
2018-03-15T17:00:42.266Z,997.5
2018-03-15T17:05:42.122Z,997.5
2018-03-15T17:10:42.027Z,997.6
2018-03-15T17:15:42.022Z,997.7
2018-03-15T17:20:42.221Z,997.8
2018-03-15T17:25:42.173Z,997.8
2018-03-15T17:30:41.915Z,997.7
2018-03-15T17:35:42.127Z,997.6
2018-03-15T17:40:41.859Z,997.7
2018-03-15T17:45:41.919Z,997.6
2018-03-15T17:50:42.406Z,997.7
2018-03-15T17:55:42.212Z,997.6
2018-03-15T18:00:42.903Z,997.6
2018-03-15T18:05:42.555Z,997.6
2018-03-15T18:10:42.332Z,997.7
2018-03-15T18:15:42.595Z,997.7
2018-03-15T18:20:42.042Z,997.7
2018-03-15T18:25:41.988Z,997.6
2018-03-15T18:30:42.590Z,997.5
2018-03-15T18:35:42.319Z,997.4
2018-03-15T18:40:42.017Z,997.5
2018-03-15T18:45:42.434Z,997.5
2018-03-15T18:50:42.119Z,997.5
2018-03-15T18:55:42.315Z,997.4
2018-03-15T19:00:43.383Z,997.5
2018-03-15T19:05:41.908Z,997.5
2018-03-15T19:10:42.053Z,997.6
2018-03-15T19:15:42.122Z,997.6
2018-03-15T19:20:41.798Z,997.6
2018-03-15T19:25:42.032Z,997.7
2018-03-15T19:30:42.570Z,997.7
2018-03-15T19:35:42.277Z,997.7
2018-03-15T19:40:41.894Z,997.8
2018-03-15T19:45:42.239Z,997.9
2018-03-15T19:50:41.914Z,997.9
2018-03-15T19:55:41.745Z,998
2018-03-15T20:00:41.995Z,998.1
2018-03-15T20:05:41.765Z,998.1
2018-03-15T20:10:41.769Z,998.2
2018-03-15T20:15:41.916Z,998.2
2018-03-15T20:20:41.955Z,998.3
2018-03-15T20:25:41.632Z,998.3
2018-03-15T20:30:41.921Z,998.4
2018-03-15T20:35:41.783Z,998.4
2018-03-15T20:40:41.889Z,998.4
2018-03-15T20:45:41.684Z,998.4
2018-03-15T20:50:41.587Z,998.5
2018-03-15T20:55:41.598Z,998.5
2018-03-15T21:00:41.692Z,998.5
2018-03-15T21:05:41.925Z,998.5
2018-03-15T21:10:41.809Z,998.5
2018-03-15T21:15:41.801Z,998.4
2018-03-15T21:20:41.745Z,998.4
2018-03-15T21:25:41.772Z,998.4
2018-03-15T21:30:42.119Z,998.5
2018-03-15T21:35:41.858Z,998.5
2018-03-15T21:40:41.858Z,998.5
2018-03-15T21:45:41.667Z,998.5
2018-03-15T21:50:41.729Z,998.5
2018-03-15T21:55:41.663Z,998.5
2018-03-15T22:00:41.937Z,998.4
2018-03-15T22:05:41.874Z,998.4
2018-03-15T22:10:41.918Z,998.4
2018-03-15T22:15:41.795Z,998.4
2018-03-15T22:20:41.494Z,998.4
2018-03-15T22:25:41.997Z,998.4
2018-03-15T22:30:41.730Z,998.3
2018-03-15T22:35:41.911Z,998.3
2018-03-15T22:40:41.972Z,998.2
2018-03-15T22:45:41.864Z,998.2
2018-03-15T22:50:42.568Z,998.3
2018-03-15T22:55:42.120Z,998.3
2018-03-15T23:00:42.156Z,998.3
2018-03-15T23:05:43.253Z,998.3
2018-03-15T23:10:41.954Z,998.3
2018-03-15T23:15:41.456Z,998.3
2018-03-15T23:20:41.705Z,998.3
2018-03-15T23:25:42.008Z,998.4
2018-03-15T23:30:41.585Z,998.4
2018-03-15T23:35:41.852Z,998.4
2018-03-15T23:40:41.906Z,998.4
2018-03-15T23:45:41.814Z,998.4
2018-03-15T23:50:41.818Z,998.4
2018-03-15T23:55:41.437Z,998.5
